Time;durP1;ratioP1;P1;durP2;ratioP2;P2;SDS_P1;SDS_P2;PMS_P1;PMS_P2;Temp;Humidity;BMP_temperature;BMP_pressure;BME280_temperature;BME280_humidity;BME280_pressure;Samples;Min_cycle;Max_cycle;Signal;HPM_P1;HPM_P2
2023/06/18 08:05:48;;;;;;;9.20;8.40;;;;;;;;;;6228411;22;21383;-87
2023/06/18 08:08:15;;;;;;;10.05;8.98;;;;;;;;;;6308060;22;20019;-83
2023/06/18 08:10:40;;;;;;;9.27;8.38;;;;;;;;;;6308461;22;20085;-83
2023/06/18 08:13:06;;;;;;;9.30;8.30;;;;;;;;;;6308103;22;20422;-84
2023/06/18 08:15:31;;;;;;;9.73;8.18;;;;;;;;;;6308197;22;20031;-83
2023/06/18 08:17:57;;;;;;;9.02;8.13;;;;;;;;;;6308189;22;20049;-82
2023/06/18 08:20:22;;;;;;;9.77;8.77;;;;;;;;;;6308420;22;20030;-84
2023/06/18 08:22:47;;;;;;;12.00;8.98;;;;;;;;;;6308223;22;20422;-87
2023/06/18 08:25:13;;;;;;;11.90;9.70;;;;;;;;;;6307051;22;20007;-84
2023/06/18 08:27:38;;;;;;;10.52;8.70;;;;;;;;;;6307631;22;20000;-83
2023/06/18 08:30:05;;;;;;;8.77;7.97;;;;;;;;;;6307994;22;20007;-83
2023/06/18 08:32:30;;;;;;;8.73;7.93;;;;;;;;;;6307040;22;20378;-82
2023/06/18 08:34:55;;;;;;;9.32;7.80;;;;;;;;;;6308371;22;20018;-85
2023/06/18 08:37:21;;;;;;;10.57;8.63;;;;;;;;;;6308214;22;20060;-83
2023/06/18 08:39:46;;;;;;;9.38;8.43;;;;;;;;;;6307921;22;20330;-82
2023/06/18 08:42:17;;;;;;;9.05;8.05;;;;;;;;;;6307652;22;20006;-83
2023/06/18 08:44:45;;;;;;;9.50;8.40;;;;;;;;;;6308301;22;20007;-79
2023/06/18 08:47:11;;;;;;;9.80;8.80;;;;;;;;;;6308763;22;20038;-87
2023/06/18 08:49:40;;;;;;;9.40;8.50;;;;;;;;;;6308200;22;20006;-86
2023/06/18 08:52:08;;;;;;;9.40;8.50;;;;;;;;;;6308475;22;19995;-81
2023/06/18 08:54:36;;;;;;;9.18;7.93;;;;;;;;;;6308493;22;20007;-87
2023/06/18 08:57:15;;;;;;;9.15;7.93;;;;;;;;;;6308396;22;20477;-90
2023/06/18 08:59:42;;;;;;;;;;;;;;;;;;6308965;22;20484;-89
2023/06/18 09:02:10;;;;;;;9.48;8.48;;;;;;;;;;6280899;22;20229;-91
2023/06/18 13:18:56;;;;;;;8.03;7.13;;;;;;;;;;6305994;22;20011;-82
2023/06/18 13:21:21;;;;;;;8.35;7.32;;;;;;;;;;6341238;22;20011;-91
2023/06/18 13:23:47;;;;;;;8.43;7.65;;;;;;;;;;6341217;22;20007;-84
2023/06/18 13:26:13;;;;;;;8.23;7.43;;;;;;;;;;6340947;22;19999;-86
2023/06/18 13:28:39;;;;;;;9.07;7.63;;;;;;;;;;6341117;22;19998;-90
2023/06/18 13:31:04;;;;;;;8.50;7.57;;;;;;;;;;6341390;22;20448;-86
2023/06/18 13:33:29;;;;;;;8.10;7.35;;;;;;;;;;6341259;22;19999;-81
2023/06/18 13:35:55;;;;;;;8.80;8.07;;;;;;;;;;6341064;22;20002;-82
2023/06/18 13:38:21;;;;;;;8.40;7.65;;;;;;;;;;6341069;22;20010;-87
2023/06/18 13:40:46;;;;;;;8.02;7.22;;;;;;;;;;6340782;22;19999;-83
2023/06/18 13:43:12;;;;;;;8.13;7.43;;;;;;;;;;6341389;22;20006;-91
2023/06/18 13:45:39;;;;;;;9.90;7.25;;;;;;;;;;6313275;22;20014;-91
2023/06/18 13:48:06;;;;;;;8.20;7.38;;;;;;;;;;6340638;22;20322;-81
2023/06/18 13:50:32;;;;;;;8.70;7.90;;;;;;;;;;6341784;22;20022;-89
2023/06/18 13:52:58;;;;;;;8.88;7.10;;;;;;;;;;6314946;22;20307;-83
2023/06/18 13:55:24;;;;;;;8.65;7.72;;;;;;;;;;6341401;22;20034;-82
2023/06/18 13:57:49;;;;;;;7.60;6.80;;;;;;;;;;6341328;22;20062;-82
2023/06/18 14:00:16;;;;;;;8.98;7.93;;;;;;;;;;6341294;22;20487;-82
2023/06/18 14:02:41;;;;;;;8.68;7.85;;;;;;;;;;6341295;22;20002;-83
2023/06/18 14:05:07;;;;;;;8.95;8.05;;;;;;;;;;6342386;22;19999;-81
2023/06/18 14:07:32;;;;;;;8.63;7.75;;;;;;;;;;6316178;22;20074;-80
2023/06/18 14:09:59;;;;;;;8.98;7.13;;;;;;;;;;6341116;22;20006;-83
2023/06/18 14:12:25;;;;;;;9.32;7.40;;;;;;;;;;6342512;22;20061;-81
2023/06/18 14:14:51;;;;;;;10.05;7.25;;;;;;;;;;6340886;22;19999;-83
2023/06/18 14:17:16;;;;;;;9.45;7.85;;;;;;;;;;6342177;22;20056;-90
2023/06/18 14:19:42;;;;;;;10.73;8.50;;;;;;;;;;6341960;22;20003;-92
2023/06/18 14:22:08;;;;;;;8.85;8.05;;;;;;;;;;6343155;22;20010;-79
2023/06/18 14:24:34;;;;;;;9.90;8.90;;;;;;;;;;6340131;22;20003;-79
2023/06/18 14:27:01;;;;;;;9.43;8.52;;;;;;;;;;6341917;22;20410;-78
2023/06/18 14:29:30;;;;;;;10.38;8.98;;;;;;;;;;6341599;22;20030;-79
2023/06/18 14:31:56;;;;;;;10.98;9.10;;;;;;;;;;6314240;22;20010;-84
2023/06/18 14:34:21;;;;;;;9.57;8.52;;;;;;;;;;6340734;22;20002;-84
2023/06/18 14:36:47;;;;;;;10.50;9.30;;;;;;;;;;6341403;22;20006;-89
2023/06/18 14:39:12;;;;;;;9.90;8.90;;;;;;;;;;6340522;22;20409;-82
2023/06/18 14:41:37;;;;;;;10.35;9.27;;;;;;;;;;6340456;22;19999;-81
2023/06/18 14:44:03;;;;;;;9.82;8.50;;;;;;;;;;6340143;22;19995;-79
2023/06/18 14:46:29;;;;;;;10.38;9.27;;;;;;;;;;6340553;22;20408;-80
2023/06/18 14:48:54;;;;;;;10.52;9.43;;;;;;;;;;6340357;22;20089;-79
2023/06/18 14:51:20;;;;;;;10.02;9.02;;;;;;;;;;6340414;22;20006;-79
2023/06/18 14:53:50;;;;;;;11.43;8.80;;;;;;;;;;6340395;22;19999;-79
2023/06/18 14:56:17;;;;;;;10.95;9.20;;;;;;;;;;6340223;22;20006;-78
2023/06/18 14:58:44;;;;;;;11.63;9.02;;;;;;;;;;6339875;22;20078;-79
2023/06/18 15:01:09;;;;;;;10.18;8.93;;;;;;;;;;6341172;22;20413;-83
2023/06/18 15:03:35;;;;;;;9.63;8.70;;;;;;;;;;6340529;22;19998;-80
2023/06/18 15:06:00;;;;;;;9.40;8.50;;;;;;;;;;6340245;22;20014;-79
2023/06/18 15:08:25;;;;;;;9.63;8.65;;;;;;;;;;6340273;22;20014;-79
2023/06/18 15:10:51;;;;;;;9.80;8.80;;;;;;;;;;6340189;22;20325;-82
2023/06/18 15:13:17;;;;;;;10.98;9.60;;;;;;;;;;6339867;22;19994;-82
2023/06/18 15:15:44;;;;;;;10.85;9.75;;;;;;;;;;6339938;22;20426;-79
2023/06/18 15:18:09;;;;;;;11.48;8.82;;;;;;;;;;6338732;22;20011;-80
2023/06/18 15:20:37;;;;;;;9.98;8.90;;;;;;;;;;6340586;22;20003;-79
2023/06/18 15:23:02;;;;;;;11.02;8.88;;;;;;;;;;6340317;22;20440;-79
2023/06/18 15:25:28;;;;;;;10.18;8.45;;;;;;;;;;6340469;22;19999;-79
2023/06/18 15:27:53;;;;;;;11.68;8.80;;;;;;;;;;6340967;22;20006;-79
2023/06/18 15:30:18;;;;;;;9.50;8.52;;;;;;;;;;6340609;22;20051;-79
2023/06/18 15:32:44;;;;;;;9.75;8.77;;;;;;;;;;6339796;22;20003;-83
2023/06/18 15:35:10;;;;;;;9.98;8.63;;;;;;;;;;6339873;22;20005;-86
2023/06/18 15:37:35;;;;;;;9.35;8.45;;;;;;;;;;6339918;22;20457;-79
2023/06/18 15:40:01;;;;;;;9.50;8.07;;;;;;;;;;6340255;22;20037;-86
2023/06/18 15:42:27;;;;;;;8.98;8.07;;;;;;;;;;6339581;22;20009;-79
2023/06/18 15:44:52;;;;;;;10.15;9.15;;;;;;;;;;6339801;22;20052;-80
2023/06/18 15:47:18;;;;;;;10.35;8.40;;;;;;;;;;6339585;22;20077;-79
2023/06/18 15:49:43;;;;;;;9.85;7.80;;;;;;;;;;6339819;22;20007;-85
2023/06/18 15:52:15;;;;;;;9.35;8.48;;;;;;;;;;6340060;22;20003;-91
2023/06/18 15:54:40;;;;;;;9.80;7.70;;;;;;;;;;6312402;22;20002;-79
2023/06/18 15:57:05;;;;;;;10.00;9.00;;;;;;;;;;6339084;22;20026;-80
2023/06/18 15:59:32;;;;;;;8.70;7.93;;;;;;;;;;6339627;22;20003;-80
2023/06/18 16:01:58;;;;;;;10.73;9.05;;;;;;;;;;6339890;22;20061;-79
2023/06/18 16:04:24;;;;;;;9.63;8.35;;;;;;;;;;6339993;22;20003;-79
2023/06/18 16:06:50;;;;;;;9.73;8.02;;;;;;;;;;6312549;22;20002;-79
2023/06/18 16:09:15;;;;;;;9.85;8.90;;;;;;;;;;6339356;22;20030;-79
2023/06/18 16:11:41;;;;;;;9.25;8.38;;;;;;;;;;6311994;22;20082;-79
2023/06/18 16:14:06;;;;;;;9.07;8.23;;;;;;;;;;6340054;22;20033;-83
2023/06/18 16:16:32;;;;;;;10.80;8.75;;;;;;;;;;6339307;22;20006;-93
2023/06/18 16:18:58;;;;;;;9.40;8.50;;;;;;;;;;6339146;22;20054;-85
2023/06/18 16:21:23;;;;;;;12.15;8.43;;;;;;;;;;6340498;22;19995;-79
2023/06/18 16:23:55;;;;;;;8.48;7.60;;;;;;;;;;6339477;22;20003;-79
2023/06/18 16:26:23;;;;;;;9.57;8.73;;;;;;;;;;6339752;22;20132;-79
2023/06/18 16:28:49;;;;;;;12.23;8.00;;;;;;;;;;6339822;22;20487;-80
2023/06/18 16:31:15;;;;;;;9.27;8.38;;;;;;;;;;6341694;22;20330;-81
2023/06/18 16:33:40;;;;;;;8.57;7.78;;;;;;;;;;6341829;22;20003;-80
2023/06/18 16:36:06;;;;;;;9.45;8.57;;;;;;;;;;6341649;22;20052;-83
2023/06/18 16:38:32;;;;;;;8.95;8.05;;;;;;;;;;6341620;22;20013;-81
2023/06/18 16:40:57;;;;;;;9.63;8.23;;;;;;;;;;6341714;22;20003;-90
2023/06/18 16:43:23;;;;;;;9.80;8.05;;;;;;;;;;6341873;22;20476;-92
2023/06/18 16:45:48;;;;;;;8.85;7.95;;;;;;;;;;6341526;22;20318;-79
2023/06/18 16:48:14;;;;;;;10.45;8.10;;;;;;;;;;6342756;22;20002;-82
2023/06/18 16:50:39;;;;;;;8.90;8.02;;;;;;;;;;6342229;22;19999;-79
2023/06/18 16:53:05;;;;;;;8.38;7.68;;;;;;;;;;6341951;22;19999;-79
2023/06/18 16:55:30;;;;;;;9.30;8.40;;;;;;;;;;6340852;22;19999;-79
2023/06/18 16:57:55;;;;;;;9.25;7.57;;;;;;;;;;6342360;22;19999;-79
2023/06/18 17:00:21;;;;;;;8.18;7.38;;;;;;;;;;6343537;22;20010;-82
2023/06/18 17:02:46;;;;;;;8.10;7.30;;;;;;;;;;6342452;22;19999;-85
2023/06/18 17:05:12;;;;;;;7.90;7.10;;;;;;;;;;6343311;22;20077;-83
2023/06/18 17:07:38;;;;;;;8.45;7.63;;;;;;;;;;6341770;22;19999;-82
2023/06/18 17:10:04;;;;;;;9.00;7.40;;;;;;;;;;6341400;22;20479;-80
2023/06/18 17:12:29;;;;;;;9.95;7.82;;;;;;;;;;6341476;22;20003;-82
2023/06/18 17:14:55;;;;;;;8.25;7.45;;;;;;;;;;6340238;22;20030;-83
2023/06/18 17:17:20;;;;;;;7.72;6.78;;;;;;;;;;6342519;22;20010;-83
2023/06/18 17:19:48;;;;;;;7.47;6.70;;;;;;;;;;6342226;22;20368;-84
2023/06/18 17:22:14;;;;;;;7.72;7.00;;;;;;;;;;6340829;22;20003;-82
2023/06/18 17:24:39;;;;;;;7.72;6.90;;;;;;;;;;6340738;22;20456;-82
2023/06/18 17:27:06;;;;;;;8.52;7.70;;;;;;;;;;6341278;22;20003;-86
2023/06/18 17:29:31;;;;;;;7.95;7.25;;;;;;;;;;6340713;22;20009;-84
2023/06/18 17:31:57;;;;;;;7.95;6.80;;;;;;;;;;6341080;22;20027;-83
2023/06/18 17:34:23;;;;;;;7.72;7.03;;;;;;;;;;6340641;22;19999;-84
2023/06/18 17:36:49;;;;;;;8.88;7.90;;;;;;;;;;6340630;22;20093;-83
2023/06/18 17:39:15;;;;;;;7.78;7.03;;;;;;;;;;6340256;22;20052;-83
2023/06/18 17:41:40;;;;;;;7.70;7.10;;;;;;;;;;6339943;22;20045;-83
2023/06/18 17:44:06;;;;;;;7.78;7.00;;;;;;;;;;6340613;22;20081;-86
2023/06/18 17:46:31;;;;;;;8.73;6.93;;;;;;;;;;6340973;22;20003;-91
2023/06/18 17:48:57;;;;;;;7.82;7.15;;;;;;;;;;6340816;22;20007;-87
2023/06/18 17:51:22;;;;;;;8.07;7.07;;;;;;;;;;6340182;22;19998;-81
2023/06/18 17:53:48;;;;;;;8.30;7.18;;;;;;;;;;6340168;22;20009;-86
2023/06/18 17:56:13;;;;;;;10.75;7.43;;;;;;;;;;6340243;22;20414;-85
2023/06/18 17:58:39;;;;;;;8.90;8.00;;;;;;;;;;6340337;22;19999;-83
2023/06/18 18:01:05;;;;;;;8.20;7.40;;;;;;;;;;6340507;22;20381;-84
2023/06/18 18:03:33;;;;;;;7.43;6.60;;;;;;;;;;6340507;22;20003;-85
2023/06/18 18:05:59;;;;;;;9.15;8.10;;;;;;;;;;6340748;22;19999;-84
2023/06/18 18:08:25;;;;;;;7.60;6.90;;;;;;;;;;6340561;22;20006;-84
2023/06/18 18:10:50;;;;;;;7.57;6.88;;;;;;;;;;6341128;22;20003;-82
2023/06/18 18:13:20;;;;;;;7.82;7.13;;;;;;;;;;6313541;22;20093;-83
2023/06/18 18:15:45;;;;;;;8.35;7.55;;;;;;;;;;6340409;22;20509;-89
2023/06/18 18:18:11;;;;;;;8.05;7.25;;;;;;;;;;6340137;22;20091;-85
2023/06/18 18:20:36;;;;;;;10.65;6.97;;;;;;;;;;6340629;22;20025;-89
2023/06/18 18:23:02;;;;;;;7.68;6.97;;;;;;;;;;6346774;22;20022;-81
2023/06/18 18:25:27;;;;;;;7.28;6.60;;;;;;;;;;6340825;22;20007;-85
2023/06/18 18:27:53;;;;;;;7.40;6.65;;;;;;;;;;6312893;22;19999;-84
2023/06/18 18:30:19;;;;;;;7.22;6.63;;;;;;;;;;6340301;22;20006;-83
2023/06/18 18:32:45;;;;;;;7.18;6.47;;;;;;;;;;6339986;22;20364;-91
2023/06/18 18:35:10;;;;;;;7.53;6.82;;;;;;;;;;6340741;22;20028;-82
2023/06/18 18:37:35;;;;;;;8.75;7.95;;;;;;;;;;6341362;22;20053;-85
2023/06/18 18:40:05;;;;;;;10.10;9.10;;;;;;;;;;6342071;22;20430;-86
2023/06/18 18:42:30;;;;;;;9.15;8.25;;;;;;;;;;6340250;22;20002;-82
2023/06/18 18:44:55;;;;;;;8.95;8.13;;;;;;;;;;6340219;22;20080;-81
2023/06/18 18:47:21;;;;;;;7.65;6.95;;;;;;;;;;6340546;22;19998;-81
2023/06/18 18:49:46;;;;;;;8.95;7.93;;;;;;;;;;6340823;22;20016;-88
2023/06/18 18:52:12;;;;;;;9.98;7.38;;;;;;;;;;6340294;22;19998;-81
2023/06/18 18:54:37;;;;;;;7.75;7.05;;;;;;;;;;6340142;22;20054;-85
2023/06/18 18:57:04;;;;;;;7.72;6.80;;;;;;;;;;6340783;22;20006;-86
2023/06/18 18:59:29;;;;;;;8.10;7.35;;;;;;;;;;6340276;22;20007;-89
2023/06/18 19:01:55;;;;;;;7.82;7.00;;;;;;;;;;6312540;22;20037;-80
2023/06/18 19:04:20;;;;;;;8.10;7.28;;;;;;;;;;6339730;22;20002;-85
2023/06/18 19:06:46;;;;;;;7.97;7.15;;;;;;;;;;6339934;22;20045;-81
2023/06/18 19:09:12;;;;;;;7.97;6.97;;;;;;;;;;6339889;22;20026;-80
2023/06/18 19:11:37;;;;;;;8.02;7.22;;;;;;;;;;6340478;22;20006;-81
2023/06/18 19:14:03;;;;;;;7.90;7.10;;;;;;;;;;6340559;22;19998;-84
2023/06/18 19:16:28;;;;;;;8.80;7.63;;;;;;;;;;6340702;22;20402;-81
2023/06/18 19:18:57;;;;;;;7.80;7.03;;;;;;;;;;6339499;22;20011;-89
2023/06/18 19:21:25;;;;;;;10.10;9.20;;;;;;;;;;6340244;22;20009;-82
2023/06/18 19:23:53;;;;;;;8.80;8.00;;;;;;;;;;6340308;22;20061;-83
2023/06/18 19:26:19;;;;;;;9.07;8.20;;;;;;;;;;6340315;22;20003;-81
2023/06/18 19:28:44;;;;;;;11.20;8.07;;;;;;;;;;6340625;22;20334;-96
2023/06/18 19:31:09;;;;;;;8.45;7.65;;;;;;;;;;6341989;22;20019;-96
2023/06/18 19:33:35;;;;;;;8.82;7.20;;;;;;;;;;6313434;22;20022;-94
2023/06/18 19:36:00;;;;;;;8.00;7.30;;;;;;;;;;6341245;22;20007;-93
2023/06/18 19:38:26;;;;;;;9.57;8.45;;;;;;;;;;6341519;22;20003;-83
2023/06/18 19:40:52;;;;;;;8.30;7.60;;;;;;;;;;6340458;22;20040;-90
2023/06/18 19:43:17;;;;;;;8.38;7.55;;;;;;;;;;6339432;22;19994;-83
2023/06/18 19:45:43;;;;;;;8.40;7.60;;;;;;;;;;6340236;22;20078;-82
2023/06/18 19:48:09;;;;;;;8.23;7.53;;;;;;;;;;6340974;22;20095;-91
2023/06/18 19:50:34;;;;;;;8.40;7.60;;;;;;;;;;6340738;22;20477;-92
2023/06/18 19:53:00;;;;;;;8.90;7.68;;;;;;;;;;6340916;22;19998;-85
2023/06/18 19:55:25;;;;;;;8.68;7.93;;;;;;;;;;6341171;22;19998;-81
2023/06/18 19:57:51;;;;;;;8.45;7.65;;;;;;;;;;6340316;22;20056;-91
2023/06/18 20:00:18;;;;;;;8.40;7.50;;;;;;;;;;6342724;22;20007;-87
2023/06/18 20:02:44;;;;;;;9.07;7.60;;;;;;;;;;6348616;22;20069;-96
2023/06/18 20:05:11;;;;;;;8.10;7.30;;;;;;;;;;6344055;22;20330;-80
2023/06/18 20:07:36;;;;;;;8.30;7.60;;;;;;;;;;6343472;22;20015;-82
2023/06/18 20:10:04;;;;;;;8.70;7.80;;;;;;;;;;6341011;22;20006;-94
2023/06/18 20:12:31;;;;;;;8.30;7.60;;;;;;;;;;6341571;22;20510;-82
2023/06/18 20:14:57;;;;;;;8.23;7.43;;;;;;;;;;6343041;22;20060;-82
2023/06/18 20:17:24;;;;;;;8.02;7.32;;;;;;;;;;6342762;22;20015;-85
2023/06/18 20:19:49;;;;;;;7.78;7.10;;;;;;;;;;6341055;22;20014;-95
2023/06/18 20:22:15;;;;;;;7.70;7.00;;;;;;;;;;6341100;22;20003;-81
2023/06/18 20:24:41;;;;;;;8.05;7.22;;;;;;;;;;6340924;22;20003;-91
2023/06/18 20:27:06;;;;;;;8.18;7.47;;;;;;;;;;6342873;22;20003;-83
2023/06/18 20:29:32;;;;;;;8.48;7.60;;;;;;;;;;6343360;22;20410;-81
2023/06/18 20:31:58;;;;;;;8.20;7.40;;;;;;;;;;6342544;22;19999;-88
2023/06/18 20:34:24;;;;;;;8.75;7.85;;;;;;;;;;6342032;22;20136;-84
2023/06/18 20:36:49;;;;;;;8.60;7.75;;;;;;;;;;6343048;22;20082;-82
2023/06/18 20:39:15;;;;;;;8.63;7.65;;;;;;;;;;6342772;22;20007;-90
2023/06/18 20:41:41;;;;;;;8.43;7.63;;;;;;;;;;6347054;22;20078;-94
2023/06/18 20:44:06;;;;;;;8.88;7.97;;;;;;;;;;6318969;22;20404;-87
2023/06/18 20:46:32;;;;;;;8.98;8.13;;;;;;;;;;6348110;22;19999;-82
2023/06/18 20:48:59;;;;;;;8.75;7.95;;;;;;;;;;6353667;22;20033;-85
2023/06/18 20:51:24;;;;;;;8.25;7.50;;;;;;;;;;6353224;22;20029;-88
2023/06/18 20:53:56;;;;;;;8.68;7.88;;;;;;;;;;6350862;22;20003;-88
2023/06/18 20:56:24;;;;;;;8.05;7.35;;;;;;;;;;6347356;22;20025;-82
2023/06/18 20:58:50;;;;;;;9.10;8.07;;;;;;;;;;6343101;22;20031;-94
2023/06/18 21:01:15;;;;;;;8.20;7.50;;;;;;;;;;6345193;22;20326;-95
2023/06/18 21:03:46;;;;;;;8.80;8.10;;;;;;;;;;6343081;22;20075;-82
2023/06/18 21:06:13;;;;;;;8.95;8.15;;;;;;;;;;6340231;22;19999;-81
2023/06/18 21:08:39;;;;;;;8.63;7.78;;;;;;;;;;6340436;22;20009;-81
2023/06/18 21:11:04;;;;;;;8.80;8.00;;;;;;;;;;6340042;22;19999;-81
2023/06/18 21:13:30;;;;;;;9.10;7.30;;;;;;;;;;6340380;22;20002;-83
2023/06/18 21:15:55;;;;;;;7.97;7.28;;;;;;;;;;6340769;22;20410;-94
2023/06/18 21:18:20;;;;;;;9.05;8.15;;;;;;;;;;6341655;22;20022;-94
2023/06/18 21:20:46;;;;;;;8.45;7.65;;;;;;;;;;6342249;22;19998;-84
2023/06/18 21:23:12;;;;;;;8.55;7.57;;;;;;;;;;6342123;22;20307;-94
2023/06/18 21:25:38;;;;;;;9.30;8.45;;;;;;;;;;6341894;22;20307;-82
2023/06/18 21:28:03;;;;;;;8.25;7.55;;;;;;;;;;6342588;22;20371;-81
2023/06/18 21:30:29;;;;;;;8.73;7.93;;;;;;;;;;6341843;22;20011;-92
2023/06/18 21:32:54;;;;;;;8.13;7.20;;;;;;;;;;6341805;22;20055;-95
2023/06/18 21:35:20;;;;;;;8.60;7.80;;;;;;;;;;6341256;22;20006;-86
